createdAt,value
2022-08-17T00:01:30.073Z,57.07
2022-08-17T00:04:09.294Z,57.30
2022-08-17T00:06:38.278Z,57.08
2022-08-17T00:09:05.620Z,57.17
2022-08-17T00:11:36.996Z,57.24
2022-08-17T00:14:13.709Z,57.09
2022-08-17T00:16:53.457Z,57.16
2022-08-17T00:19:25.079Z,57.05
2022-08-17T00:22:32.061Z,57.14
2022-08-17T00:24:42.868Z,57.25
2022-08-17T00:27:09.387Z,57.48
2022-08-17T00:29:36.346Z,57.55
2022-08-17T00:33:13.692Z,57.24
2022-08-17T00:34:49.988Z,57.35
2022-08-17T00:37:16.680Z,57.53
2022-08-17T00:39:43.453Z,57.65
2022-08-17T00:42:18.895Z,57.61
2022-08-17T00:44:45.934Z,57.80
2022-08-17T00:47:12.590Z,58.11
2022-08-17T00:49:39.063Z,57.72
2022-08-17T00:52:15.286Z,57.61
2022-08-17T00:54:44.696Z,57.74
2022-08-17T00:57:18.902Z,57.53
2022-08-17T00:59:51.150Z,57.89
2022-08-17T01:02:34.244Z,57.96
2022-08-17T01:05:09.922Z,58.08
2022-08-17T01:07:37.910Z,57.81
2022-08-17T01:10:09.024Z,57.99
2022-08-17T01:12:56.772Z,58.03
2022-08-17T01:15:23.484Z,58.00
2022-08-17T01:17:50.227Z,58.00
2022-08-17T01:20:16.952Z,57.87
2022-08-17T01:22:43.543Z,58.20
2022-08-17T01:25:12.654Z,58.19
2022-08-17T01:27:39.462Z,58.20
2022-08-17T01:30:56.850Z,58.20
2022-08-17T01:32:58.052Z,58.47
2022-08-17T01:35:24.727Z,58.10
2022-08-17T01:37:51.217Z,58.26
2022-08-17T01:40:33.000Z,58.08
2022-08-17T01:43:03.960Z,58.19
2022-08-17T01:45:33.762Z,58.58
2022-08-17T01:48:01.036Z,58.51
2022-08-17T01:50:31.383Z,58.63
2022-08-17T01:53:06.121Z,58.46
2022-08-17T01:55:39.707Z,58.45
2022-08-17T01:58:09.636Z,58.40
2022-08-17T02:00:47.839Z,58.41
2022-08-17T02:03:25.106Z,58.60
2022-08-17T02:05:53.231Z,58.71
2022-08-17T02:08:36.913Z,58.58
2022-08-17T02:11:11.608Z,58.49
2022-08-17T02:13:39.028Z,58.57
2022-08-17T02:16:05.957Z,58.76
2022-08-17T02:18:32.837Z,58.88
2022-08-17T02:20:59.738Z,58.88
2022-08-17T02:23:29.185Z,58.88
2022-08-17T02:25:58.783Z,58.84
2022-08-17T02:28:25.435Z,58.78
2022-08-17T02:31:01.022Z,58.68
2022-08-17T02:33:41.760Z,58.87
2022-08-17T02:36:12.331Z,58.84
2022-08-17T02:38:40.536Z,59.05
2022-08-17T02:41:08.013Z,58.93
2022-08-17T02:43:35.398Z,58.93
2022-08-17T02:46:01.931Z,59.13
2022-08-17T02:48:31.561Z,58.97
2022-08-17T02:51:00.131Z,59.00
2022-08-17T02:53:27.701Z,58.95
2022-08-17T02:56:02.171Z,59.05
2022-08-17T02:58:34.635Z,59.17
2022-08-17T03:01:03.672Z,59.16
2022-08-17T03:03:30.154Z,59.16
2022-08-17T03:05:56.601Z,59.22
2022-08-17T03:08:23.386Z,59.24
2022-08-17T03:10:50.484Z,59.20
2022-08-17T03:13:17.611Z,59.26
2022-08-17T03:15:46.181Z,59.30
2022-08-17T03:18:24.175Z,59.24
2022-08-17T03:20:56.950Z,59.34
2022-08-17T03:23:25.542Z,59.25
2022-08-17T03:25:53.733Z,59.46
2022-08-17T03:28:21.406Z,59.50
2022-08-17T03:30:47.933Z,59.41
2022-08-17T03:33:14.786Z,59.62
2022-08-17T03:35:41.700Z,59.29
2022-08-17T03:38:10.849Z,59.40
2022-08-17T03:40:58.887Z,59.58
2022-08-17T03:43:25.153Z,59.46
2022-08-17T03:46:19.289Z,59.64
2022-08-17T03:49:15.025Z,59.59
2022-08-17T03:52:00.012Z,59.59
2022-08-17T03:54:45.186Z,59.53
2022-08-17T03:57:12.423Z,59.58
2022-08-17T03:59:39.419Z,59.78
2022-08-17T04:02:21.336Z,59.75
2022-08-17T04:04:50.873Z,59.67
2022-08-17T04:07:19.474Z,59.75
2022-08-17T04:09:46.084Z,59.85
2022-08-17T04:12:16.071Z,59.82
2022-08-17T04:14:53.001Z,59.91
2022-08-17T04:17:24.089Z,59.75
2022-08-17T04:19:51.184Z,59.85
2022-08-17T04:22:31.850Z,59.93
2022-08-17T04:25:15.270Z,59.84
2022-08-17T04:27:41.905Z,59.73
2022-08-17T04:30:09.033Z,60.11
2022-08-17T04:33:07.529Z,60.25
2022-08-17T04:35:43.065Z,60.18
2022-08-17T04:38:12.345Z,60.22
2022-08-17T04:40:57.248Z,60.21
2022-08-17T04:43:25.695Z,60.33
2022-08-17T04:45:57.175Z,60.33
2022-08-17T04:48:29.573Z,60.47
2022-08-17T04:51:06.149Z,60.30
2022-08-17T04:53:32.691Z,60.55
2022-08-17T04:55:59.414Z,60.39
2022-08-17T04:58:26.295Z,60.40
2022-08-17T05:00:53.196Z,60.73
2022-08-17T05:03:19.713Z,60.74
2022-08-17T05:05:49.480Z,60.67
2022-08-17T05:08:19.024Z,60.91
2022-08-17T05:10:46.860Z,60.84
2022-08-17T05:13:17.373Z,60.84
2022-08-17T05:15:47.919Z,61.07
2022-08-17T05:18:15.941Z,60.86
2022-08-17T05:20:43.260Z,61.00
2022-08-17T05:23:12.786Z,60.99
2022-08-17T05:25:42.664Z,61.03
2022-08-17T05:28:15.430Z,61.20
2022-08-17T05:30:44.271Z,61.24
2022-08-17T05:33:33.050Z,61.14
2022-08-17T05:36:00.472Z,61.10
2022-08-17T05:38:29.852Z,61.19
2022-08-17T05:40:57.627Z,61.41
2022-08-17T05:43:25.744Z,61.11
2022-08-17T05:46:03.472Z,60.97
2022-08-17T05:48:40.026Z,61.29
2022-08-17T05:51:16.373Z,61.14
2022-08-17T05:54:16.799Z,60.98
2022-08-17T05:56:43.221Z,60.96
2022-08-17T05:59:27.955Z,60.97
2022-08-17T06:02:11.479Z,60.92
2022-08-17T06:05:12.506Z,61.06
2022-08-17T06:07:50.408Z,61.05
2022-08-17T06:10:22.844Z,61.10
2022-08-17T06:13:05.367Z,60.94
2022-08-17T06:15:47.020Z,61.11
2022-08-17T06:18:18.927Z,61.02
2022-08-17T06:20:54.319Z,60.81
2022-08-17T06:23:29.361Z,60.78
2022-08-17T06:26:03.618Z,60.88
2022-08-17T06:28:43.779Z,60.72
2022-08-17T06:31:21.335Z,60.72
2022-08-17T06:33:49.117Z,60.67
2022-08-17T06:36:24.043Z,60.72
2022-08-17T06:39:24.895Z,60.77
2022-08-17T06:43:00.850Z,60.93
2022-08-17T06:45:14.147Z,60.68
2022-08-17T06:47:58.384Z,60.75
2022-08-17T06:50:38.040Z,61.13
2022-08-17T06:53:21.086Z,60.87
2022-08-17T06:55:58.450Z,60.92
2022-08-17T06:58:31.290Z,60.99
2022-08-17T07:01:07.102Z,60.81
2022-08-17T07:03:39.527Z,61.10
2022-08-17T07:06:14.531Z,61.38
2022-08-17T07:08:56.474Z,61.22
2022-08-17T07:11:29.921Z,61.51
2022-08-17T07:14:17.399Z,61.17
2022-08-17T07:16:48.819Z,61.58
2022-08-17T07:19:18.407Z,61.86
2022-08-17T07:22:04.549Z,61.83
2022-08-17T07:24:57.217Z,61.82
2022-08-17T07:27:28.454Z,62.01
2022-08-17T07:30:09.714Z,61.47
2022-08-17T07:32:45.236Z,61.95
2022-08-17T07:35:37.712Z,62.53
2022-08-17T07:38:24.842Z,62.38
2022-08-17T07:41:01.894Z,62.43
2022-08-17T07:43:47.625Z,62.62
2022-08-17T07:46:37.771Z,62.57
2022-08-17T07:49:04.939Z,62.66
2022-08-17T07:51:33.751Z,62.97
2022-08-17T07:54:14.525Z,62.88
2022-08-17T07:56:48.134Z,63.23
2022-08-17T07:59:18.085Z,63.14
2022-08-17T08:01:58.761Z,63.05
2022-08-17T08:05:00.164Z,63.28
2022-08-17T08:07:20.785Z,63.32
2022-08-17T08:10:11.320Z,63.66
2022-08-17T08:12:44.017Z,63.41
2022-08-17T08:15:18.882Z,63.42
2022-08-17T08:17:59.203Z,63.54
2022-08-17T08:20:52.911Z,63.11
2022-08-17T08:23:33.416Z,62.99
2022-08-17T08:26:26.719Z,62.93
2022-08-17T08:29:12.478Z,63.09
2022-08-17T08:32:03.962Z,62.74
2022-08-17T08:35:02.926Z,62.66
2022-08-17T08:37:35.620Z,62.72
2022-08-17T08:40:21.829Z,62.52
2022-08-17T08:43:07.026Z,61.98
2022-08-17T08:45:56.471Z,61.14
2022-08-17T08:49:11.873Z,61.08
2022-08-17T08:51:55.481Z,60.65
2022-08-17T08:54:46.778Z,60.66
2022-08-17T08:57:38.516Z,60.46
2022-08-17T09:00:16.537Z,60.33
2022-08-17T09:03:12.866Z,60.30
2022-08-17T09:06:32.251Z,60.09
2022-08-17T09:09:07.027Z,59.90
2022-08-17T09:12:02.428Z,59.97
2022-08-17T09:14:44.892Z,60.05
2022-08-17T09:17:43.177Z,60.06
2022-08-17T09:20:27.727Z,60.11
2022-08-17T09:23:03.839Z,60.05
2022-08-17T09:25:36.640Z,59.90
2022-08-17T09:28:19.281Z,59.84
2022-08-17T09:30:49.642Z,60.04
2022-08-17T09:33:23.052Z,59.59
2022-08-17T09:35:56.184Z,59.35
2022-08-17T09:38:32.539Z,59.54
2022-08-17T09:40:59.208Z,59.74
2022-08-17T09:43:28.777Z,59.12
2022-08-17T09:46:11.390Z,59.36
2022-08-17T09:49:07.241Z,58.86
2022-08-17T09:51:45.540Z,58.84
2022-08-17T09:54:44.671Z,58.94
2022-08-17T09:57:32.444Z,58.56
2022-08-17T10:00:18.869Z,58.55
2022-08-17T10:03:09.448Z,58.27
2022-08-17T10:05:46.352Z,58.19
2022-08-17T10:08:21.811Z,57.79
2022-08-17T10:11:13.244Z,57.65
2022-08-17T10:13:53.006Z,57.57
2022-08-17T10:16:37.312Z,57.66
2022-08-17T10:19:25.505Z,57.33
2022-08-17T10:22:14.420Z,57.25
2022-08-17T10:25:22.749Z,57.16
2022-08-17T10:28:05.008Z,57.03
2022-08-17T10:30:36.430Z,57.16
2022-08-17T10:33:07.357Z,57.04
2022-08-17T10:35:52.553Z,56.67
2022-08-17T10:38:39.217Z,56.40
2022-08-17T10:41:17.473Z,56.54
2022-08-17T10:43:57.816Z,56.33
2022-08-17T10:46:55.350Z,56.02
2022-08-17T10:49:26.247Z,56.04
2022-08-17T10:51:54.854Z,55.86
2022-08-17T10:54:24.090Z,55.30
2022-08-17T10:56:53.342Z,55.20
2022-08-17T10:59:34.720Z,55.23
2022-08-17T11:02:01.116Z,54.94
2022-08-17T11:04:53.253Z,54.96
2022-08-17T11:07:36.740Z,54.72
2022-08-17T11:10:42.198Z,54.34
2022-08-17T11:13:14.372Z,54.47
2022-08-17T11:16:08.141Z,53.57
2022-08-17T11:18:53.551Z,53.71
2022-08-17T11:21:30.352Z,53.89
2022-08-17T11:24:06.581Z,54.04
2022-08-17T11:26:36.198Z,53.58
2022-08-17T11:29:17.474Z,53.32
2022-08-17T11:31:58.152Z,52.94
2022-08-17T11:34:27.348Z,52.62
2022-08-17T11:36:56.417Z,52.15
2022-08-17T11:39:33.196Z,52.32
2022-08-17T11:42:44.806Z,52.47
2022-08-17T11:45:33.080Z,51.75
2022-08-17T11:48:56.022Z,51.21
2022-08-17T11:51:43.837Z,51.50
2022-08-17T11:54:32.209Z,50.73
2022-08-17T11:57:21.332Z,51.16
2022-08-17T11:59:47.828Z,49.97
2022-08-17T12:02:28.019Z,49.75
2022-08-17T12:05:21.740Z,50.27
2022-08-17T12:08:14.760Z,49.91
2022-08-17T12:11:55.624Z,50.24
2022-08-17T12:14:21.245Z,50.09
2022-08-17T12:17:03.122Z,50.03
2022-08-17T12:19:33.755Z,50.29
2022-08-17T12:22:08.152Z,50.08
2022-08-17T12:24:34.709Z,50.13
2022-08-17T12:27:07.074Z,49.97
2022-08-17T12:29:38.735Z,50.01
2022-08-17T12:32:07.016Z,49.24
2022-08-17T12:34:42.982Z,49.37
2022-08-17T12:37:21.748Z,49.39
2022-08-17T12:40:08.172Z,49.59
2022-08-17T12:42:39.175Z,49.47
2022-08-17T12:45:08.342Z,49.63
2022-08-17T12:47:37.914Z,49.38
2022-08-17T12:50:29.610Z,49.40
2022-08-17T12:53:01.719Z,49.02
2022-08-17T12:55:35.005Z,49.45
2022-08-17T12:58:02.251Z,49.08
2022-08-17T13:00:38.162Z,48.81
2022-08-17T13:03:09.425Z,48.53
2022-08-17T13:05:42.441Z,48.60
2022-08-17T13:08:43.171Z,49.03
2022-08-17T13:11:20.766Z,49.16
2022-08-17T13:13:54.719Z,48.45
2022-08-17T13:16:23.452Z,49.09
2022-08-17T13:19:06.163Z,48.65
2022-08-17T13:21:33.682Z,47.72
2022-08-17T13:24:07.922Z,47.69
2022-08-17T13:26:38.159Z,48.04
2022-08-17T13:29:18.385Z,48.12
2022-08-17T13:31:51.993Z,47.89
2022-08-17T13:34:26.794Z,48.21
2022-08-17T13:37:40.955Z,48.27
2022-08-17T13:40:09.276Z,48.24
2022-08-17T13:42:50.570Z,47.77
2022-08-17T13:45:35.407Z,48.19
2022-08-17T13:48:11.896Z,48.31
2022-08-17T13:50:43.365Z,48.43
2022-08-17T13:53:29.569Z,47.92
2022-08-17T13:56:07.317Z,47.92
2022-08-17T13:58:58.385Z,48.09
2022-08-17T14:01:35.558Z,47.95
2022-08-17T14:04:08.621Z,47.95
2022-08-17T14:06:54.053Z,48.18
2022-08-17T14:09:24.561Z,47.83
2022-08-17T14:11:52.688Z,47.98
2022-08-17T14:14:19.661Z,47.88
2022-08-17T14:16:46.133Z,47.62
2022-08-17T14:19:14.355Z,47.90
2022-08-17T14:21:43.404Z,47.61
2022-08-17T14:24:28.418Z,47.08
2022-08-17T14:26:55.790Z,46.91
2022-08-17T14:29:24.750Z,46.53
2022-08-17T14:31:54.240Z,46.78
2022-08-17T14:34:21.609Z,46.23
2022-08-17T14:36:48.861Z,46.93
2022-08-17T14:39:16.640Z,46.05
2022-08-17T14:41:43.650Z,46.32
2022-08-17T14:44:13.012Z,46.67
2022-08-17T14:46:41.448Z,46.28
2022-08-17T14:49:11.811Z,45.78
2022-08-17T14:51:43.533Z,45.86
2022-08-17T14:54:11.474Z,46.00
2022-08-17T14:57:23.118Z,46.09
2022-08-17T14:59:44.870Z,46.06
2022-08-17T15:02:12.063Z,46.00
2022-08-17T15:04:43.357Z,46.14
2022-08-17T15:07:11.892Z,46.04
2022-08-17T15:09:39.002Z,45.98
2022-08-17T15:12:09.187Z,45.96
2022-08-17T15:14:36.212Z,46.50
2022-08-17T15:17:03.674Z,45.39
2022-08-17T15:19:30.217Z,45.58
2022-08-17T15:21:56.687Z,45.77
2022-08-17T15:24:23.274Z,45.71
2022-08-17T15:26:49.845Z,45.62
2022-08-17T15:29:17.541Z,45.18
2022-08-17T15:31:43.958Z,45.44
2022-08-17T15:34:10.415Z,46.05
2022-08-17T15:36:37.020Z,46.01
2022-08-17T15:39:05.337Z,46.76
2022-08-17T15:41:31.885Z,45.84
2022-08-17T15:43:58.507Z,45.47
2022-08-17T15:46:26.168Z,45.61
2022-08-17T15:49:00.003Z,45.62
2022-08-17T15:51:32.587Z,45.41
2022-08-17T15:54:18.711Z,44.76
2022-08-17T15:56:48.768Z,45.09
2022-08-17T15:59:15.341Z,44.44
2022-08-17T16:03:01.217Z,44.86
2022-08-17T16:04:30.908Z,44.21
2022-08-17T16:06:59.003Z,44.40
2022-08-17T16:09:25.460Z,44.87
2022-08-17T16:11:55.204Z,45.76
2022-08-17T16:14:24.120Z,44.97
2022-08-17T16:16:50.944Z,45.07
2022-08-17T16:19:17.461Z,45.25
2022-08-17T16:21:43.902Z,45.30
2022-08-17T16:24:13.190Z,45.15
2022-08-17T16:26:42.438Z,45.45
2022-08-17T16:29:09.104Z,45.00
2022-08-17T16:31:37.532Z,46.12
2022-08-17T16:34:17.023Z,45.08
2022-08-17T16:36:53.771Z,44.88
2022-08-17T16:39:22.672Z,44.46
2022-08-17T16:41:50.267Z,45.29
2022-08-17T16:44:19.619Z,44.91
2022-08-17T16:46:48.249Z,44.59
2022-08-17T16:49:31.930Z,44.55
2022-08-17T16:52:03.795Z,44.55
2022-08-17T16:54:30.291Z,45.05
2022-08-17T16:56:56.782Z,45.35
2022-08-17T16:59:30.925Z,45.42
2022-08-17T17:02:04.936Z,45.43
2022-08-17T17:04:34.982Z,45.56
2022-08-17T17:07:34.287Z,45.83
2022-08-17T17:10:08.194Z,45.16
2022-08-17T17:13:03.195Z,45.57
2022-08-17T17:15:28.179Z,45.76
2022-08-17T17:18:06.795Z,45.57
2022-08-17T17:20:45.695Z,45.34
2022-08-17T17:23:41.067Z,45.58
2022-08-17T17:26:32.082Z,45.18
2022-08-17T17:29:23.960Z,45.39
2022-08-17T17:32:20.847Z,45.64
2022-08-17T17:34:59.961Z,45.63
2022-08-17T17:37:33.876Z,45.91
2022-08-17T17:40:02.824Z,45.61
2022-08-17T17:42:32.190Z,45.75
2022-08-17T17:45:07.478Z,46.23
2022-08-17T17:47:34.726Z,46.46
2022-08-17T17:50:03.709Z,46.92
2022-08-17T17:52:45.278Z,47.19
2022-08-17T17:55:33.550Z,47.95
2022-08-17T17:58:14.322Z,49.31
2022-08-17T18:01:01.783Z,50.02
2022-08-17T18:04:01.644Z,51.03
2022-08-17T18:07:03.857Z,51.51
2022-08-17T18:10:19.590Z,50.97
2022-08-17T18:13:08.462Z,51.14
2022-08-17T18:15:50.991Z,51.48
2022-08-17T18:18:17.481Z,51.91
2022-08-17T18:20:53.190Z,52.81
2022-08-17T18:23:27.097Z,52.83
2022-08-17T18:25:55.479Z,53.15
2022-08-17T18:28:35.539Z,52.98
2022-08-17T18:31:17.769Z,52.76
2022-08-17T18:33:47.968Z,52.40
2022-08-17T18:36:26.478Z,52.18
2022-08-17T18:39:10.524Z,52.76
2022-08-17T18:41:48.606Z,52.43
2022-08-17T18:44:42.852Z,53.31
2022-08-17T18:47:21.684Z,52.89
2022-08-17T18:49:56.162Z,53.27
2022-08-17T18:52:31.912Z,53.29
2022-08-17T18:55:10.567Z,52.57
2022-08-17T18:57:43.435Z,52.74
2022-08-17T19:00:29.882Z,52.76
2022-08-17T19:03:00.871Z,53.11
2022-08-17T19:05:56.229Z,52.70
2022-08-17T19:08:26.523Z,53.24
2022-08-17T19:11:01.014Z,53.33
2022-08-17T19:14:02.963Z,53.01
2022-08-17T19:16:44.467Z,53.07
2022-08-17T19:19:18.558Z,54.32
2022-08-17T19:21:48.994Z,53.37
2022-08-17T19:24:21.146Z,53.61
2022-08-17T19:27:10.896Z,53.01
2022-08-17T19:29:40.580Z,53.13
2022-08-17T19:32:09.615Z,53.28
2022-08-17T19:34:39.045Z,53.15
2022-08-17T19:37:23.179Z,53.09
2022-08-17T19:40:07.812Z,52.82
2022-08-17T19:43:00.463Z,53.14
2022-08-17T19:45:42.237Z,53.30
2022-08-17T19:48:45.366Z,53.63
2022-08-17T19:51:38.685Z,53.14
2022-08-17T19:54:20.293Z,53.31
2022-08-17T19:57:01.738Z,53.63
2022-08-17T19:59:54.938Z,53.49
2022-08-17T20:02:26.680Z,53.54
2022-08-17T20:04:59.781Z,53.38
2022-08-17T20:07:35.800Z,53.75
2022-08-17T20:10:09.567Z,53.58
2022-08-17T20:12:38.928Z,54.33
2022-08-17T20:15:10.115Z,54.51
2022-08-17T20:17:40.617Z,54.33
2022-08-17T20:20:33.219Z,54.05
2022-08-17T20:23:11.788Z,55.47
2022-08-17T20:25:57.274Z,54.58
2022-08-17T20:28:30.489Z,54.29
2022-08-17T20:30:58.190Z,54.83
2022-08-17T20:33:37.029Z,54.67
2022-08-17T20:36:18.036Z,54.37
2022-08-17T20:38:51.702Z,54.86
2022-08-17T20:41:22.826Z,55.03
2022-08-17T20:43:58.869Z,54.94
2022-08-17T20:46:37.857Z,54.58
2022-08-17T20:49:37.560Z,55.01
2022-08-17T20:52:13.345Z,54.67
2022-08-17T20:54:55.135Z,54.66
2022-08-17T20:57:31.171Z,54.50
2022-08-17T21:00:13.246Z,54.82
2022-08-17T21:02:44.455Z,55.19
2022-08-17T21:05:48.545Z,54.93
2022-08-17T21:08:32.110Z,55.16
2022-08-17T21:11:20.220Z,55.46
2022-08-17T21:14:25.880Z,55.23
2022-08-17T21:17:14.808Z,55.44
2022-08-17T21:20:10.228Z,55.17
2022-08-17T21:22:56.489Z,55.96
2022-08-17T21:25:44.803Z,55.54
2022-08-17T21:28:34.129Z,55.08
2022-08-17T21:31:08.437Z,56.06
2022-08-17T21:33:39.859Z,55.71
2022-08-17T21:36:12.622Z,55.72
2022-08-17T21:38:48.607Z,55.97
2022-08-17T21:41:28.394Z,55.90
2022-08-17T21:44:02.834Z,55.95
2022-08-17T21:46:34.319Z,56.43
2022-08-17T21:49:12.238Z,57.08
2022-08-17T21:51:54.153Z,57.07
2022-08-17T21:54:31.340Z,57.96
2022-08-17T21:57:00.856Z,56.97
2022-08-17T21:59:35.582Z,56.63
2022-08-17T22:02:18.687Z,56.94
2022-08-17T22:04:58.646Z,56.69
2022-08-17T22:07:46.906Z,56.20
2022-08-17T22:10:28.555Z,56.62
2022-08-17T22:13:03.445Z,56.60
2022-08-17T22:15:29.971Z,56.94
2022-08-17T22:17:58.510Z,56.68
2022-08-17T22:20:25.255Z,57.03
2022-08-17T22:23:24.602Z,57.10
2022-08-17T22:26:02.046Z,57.25
2022-08-17T22:28:53.659Z,56.75
2022-08-17T22:31:23.276Z,57.15
2022-08-17T22:34:12.259Z,57.81
2022-08-17T22:36:41.754Z,57.73
2022-08-17T22:39:08.369Z,57.64
2022-08-17T22:41:40.470Z,57.57
2022-08-17T22:44:14.213Z,57.18
2022-08-17T22:46:56.994Z,57.71
2022-08-17T22:49:35.181Z,57.33
2022-08-17T22:52:23.928Z,57.79
2022-08-17T22:55:34.876Z,57.25
2022-08-17T22:58:21.042Z,57.57
2022-08-17T23:00:49.023Z,57.83
2022-08-17T23:03:26.214Z,57.80
2022-08-17T23:06:05.804Z,57.50
2022-08-17T23:08:35.565Z,58.07
2022-08-17T23:11:02.369Z,58.10
2022-08-17T23:13:28.917Z,58.05
2022-08-17T23:15:55.390Z,57.92
2022-08-17T23:18:23.414Z,58.30
2022-08-17T23:20:49.969Z,57.98
2022-08-17T23:23:23.431Z,58.37
2022-08-17T23:25:50.257Z,58.40
2022-08-17T23:28:16.856Z,58.30
2022-08-17T23:30:45.058Z,58.59
2022-08-17T23:33:29.756Z,58.31
2022-08-17T23:36:00.287Z,58.76
2022-08-17T23:38:27.763Z,58.75
2022-08-17T23:40:56.265Z,58.83
2022-08-17T23:43:24.281Z,58.49
2022-08-17T23:45:54.305Z,58.82
2022-08-17T23:48:28.562Z,58.80
2022-08-17T23:51:05.778Z,58.63
2022-08-17T23:53:36.590Z,58.72
2022-08-17T23:56:09.354Z,58.78
2022-08-17T23:58:38.470Z,58.96
